Time;durP1;ratioP1;P1;durP2;ratioP2;P2;SDS_P1;SDS_P2;PMS_P1;PMS_P2;Temp;Humidity;BMP_temperature;BMP_pressure;BME280_temperature;BME280_humidity;BME280_pressure;Samples;Min_cycle;Max_cycle;Signal;HPM_P1;HPM_P2
2023/10/03 00:01:21;;;;;;;;;6.33;6.33;;;;;24.87;100.00;101059.31;5056195;28;45447;-73
2023/10/03 00:03:48;;;;;;;;;8.00;8.00;;;;;24.89;100.00;101070.09;5058872;28;45543;-73
2023/10/03 00:06:14;;;;;;;;;7.33;7.33;;;;;24.85;100.00;101077.44;5058503;28;45519;-74
2023/10/03 00:08:44;;;;;;;;;9.67;7.00;;;;;24.83;100.00;101073.94;5058984;28;45369;-73
2023/10/03 00:11:18;;;;;;;;;7.67;7.00;;;;;24.78;100.00;101084.94;5056954;28;45402;-73
2023/10/03 00:13:44;;;;;;;;;14.00;9.00;;;;;24.77;100.00;101085.03;5058854;28;45527;-73
2023/10/03 00:16:10;;;;;;;;;9.67;8.33;;;;;24.73;100.00;101083.41;5059137;28;46137;-72
2023/10/03 00:18:35;;;;;;;;;13.00;7.67;;;;;24.73;100.00;101094.19;5058236;28;45546;-74
2023/10/03 00:21:01;;;;;;;;;7.00;7.00;;;;;24.67;100.00;101098.03;5058336;28;58634;-74
2023/10/03 00:23:27;;;;;;;;;9.67;8.00;;;;;24.66;100.00;101080.09;5056870;28;45691;-72
2023/10/03 00:25:59;;;;;;;;;8.67;8.00;;;;;24.63;100.00;101088.31;5056129;28;48023;-75
2023/10/03 00:28:26;;;;;;;;;8.00;8.00;;;;;24.56;100.00;101089.53;5059518;28;45376;-73
2023/10/03 00:30:52;;;;;;;;;9.00;9.00;;;;;24.53;100.00;101089.66;5058153;28;45528;-73
2023/10/03 00:33:17;;;;;;;;;9.00;8.33;;;;;24.51;100.00;101089.72;5057178;28;45404;-73
2023/10/03 00:35:43;;;;;;;;;8.33;7.67;;;;;24.50;100.00;101096.06;5057456;28;45632;-73
2023/10/03 00:38:15;;;;;;;;;8.00;8.00;;;;;24.47;100.00;101098.00;5058026;28;66460;-72
2023/10/03 00:40:40;;;;;;;;;9.67;7.33;;;;;24.47;100.00;101101.59;5058588;28;45511;-73
2023/10/03 00:43:07;;;;;;;;;9.00;7.33;;;;;24.42;100.00;101103.59;5058726;28;45486;-75
2023/10/03 00:45:33;;;;;;;;;11.33;8.33;;;;;24.39;100.00;101114.50;5060092;28;46800;-74
2023/10/03 00:48:00;;;;;;;;;9.67;9.00;;;;;24.38;100.00;101123.56;5059673;28;45340;-72
2023/10/03 00:50:27;;;;;;;;;10.00;8.33;;;;;24.33;100.00;101130.06;5058431;28;45280;-74
2023/10/03 00:53:04;;;;;;;;;8.33;8.33;;;;;24.31;100.00;101130.13;5058353;28;45365;-73
2023/10/03 00:55:32;;;;;;;;;8.00;8.00;;;;;24.27;100.00;101126.66;5052744;28;45835;-72
2023/10/03 01:00:38;;;;;;;;;12.33;9.33;;;;;24.19;100.00;101131.53;5057794;28;45325;-75
2023/10/03 01:03:09;;;;;;;;;11.67;9.00;;;;;24.19;100.00;101138.75;5051677;28;45902;-74
2023/10/03 01:05:34;;;;;;;;;10.00;9.00;;;;;24.17;100.00;101128.00;5051582;28;46174;-73
2023/10/03 01:08:00;;;;;;;;;11.33;10.33;;;;;24.17;100.00;101136.09;5055829;28;45234;-73
2023/10/03 01:10:25;;;;;;;;;9.33;8.33;;;;;24.18;100.00;101137.88;5058099;28;45435;-73
2023/10/03 01:12:54;;;;;;;;;9.00;9.00;;;;;24.14;100.00;101128.13;5058210;28;45420;-74
2023/10/03 01:15:20;;;;;;;;;11.00;9.00;;;;;24.14;100.00;101140.75;5057270;28;46822;-72
2023/10/03 01:17:49;;;;;;;;;8.00;8.00;;;;;24.12;100.00;101143.47;5063116;28;45561;-73
2023/10/03 01:20:29;;;;;;;;;10.33;9.00;;;;;24.09;100.00;101146.31;5057503;28;45463;-73
2023/10/03 01:22:56;;;;;;;;;8.00;8.00;;;;;24.09;100.00;101158.94;5058128;28;45281;-73
2023/10/03 01:25:22;;;;;;;;;12.00;10.67;;;;;24.03;100.00;101150.16;5056171;28;46847;-73
2023/10/03 01:27:47;;;;;;;;;12.33;9.67;;;;;24.02;100.00;101159.19;5057845;28;45297;-73
2023/10/03 01:30:13;;;;;;;;;13.33;10.67;;;;;24.01;100.00;101165.50;5058779;28;45382;-73
2023/10/03 01:32:45;;;;;;;;;10.33;10.00;;;;;23.98;100.00;101170.16;5057892;28;45198;-73
2023/10/03 01:35:12;;;;;;;;;15.67;11.33;;;;;23.94;100.00;101158.59;5055084;28;45527;-73
2023/10/03 01:37:39;;;;;;;;;11.00;9.67;;;;;23.95;100.00;101167.56;5055902;28;45496;-73
2023/10/03 01:40:13;;;;;;;;;16.33;11.33;;;;;23.91;100.00;101169.50;5057966;28;45495;-73
2023/10/03 01:42:45;;;;;;;;;14.00;11.33;;;;;23.90;100.00;101166.88;5057824;28;45451;-73
2023/10/03 01:45:15;;;;;;;;;11.33;10.33;;;;;23.88;100.00;101171.44;5056805;28;46681;-74
2023/10/03 01:47:42;;;;;;;;;15.67;13.33;;;;;23.86;100.00;101168.78;5057443;28;45472;-74
2023/10/03 01:50:08;;;;;;;;;14.67;11.33;;;;;23.84;100.00;101172.50;5056920;28;45516;-74
2023/10/03 01:52:34;;;;;;;;;11.67;10.67;;;;;23.77;100.00;101174.56;5056602;28;45297;-73
2023/10/03 01:54:59;;;;;;;;;14.00;11.67;;;;;23.77;100.00;101180.84;5057095;28;46592;-73
2023/10/03 01:57:25;;;;;;;;;16.00;13.00;;;;;23.73;100.00;101183.69;5056465;28;62005;-74
2023/10/03 01:59:50;;;;;;;;;19.67;15.00;;;;;23.71;100.00;101178.38;5057188;28;45367;-74
2023/10/03 02:02:15;;;;;;;;;15.33;13.33;;;;;23.70;100.00;101173.94;5056709;28;45454;-72
2023/10/03 02:04:41;;;;;;;;;14.00;14.00;;;;;23.66;100.00;101172.28;5057411;28;64087;-74
2023/10/03 02:07:07;;;;;;;;;15.33;14.67;;;;;23.66;100.00;101179.47;5056117;28;57603;-74
2023/10/03 02:09:32;;;;;;;;;16.00;15.00;;;;;23.70;100.00;101189.19;5056598;28;45632;-74
2023/10/03 02:11:59;;;;;;;;;14.33;11.33;;;;;23.66;100.00;101185.75;5056877;28;45538;-72
2023/10/03 02:14:25;;;;;;;;;8.67;8.67;;;;;23.60;100.00;101188.66;5055999;28;46823;-73
2023/10/03 02:16:51;;;;;;;;;15.33;15.33;;;;;23.57;100.00;101183.34;5061560;28;45467;-73
2023/10/03 02:19:17;;;;;;;;;19.67;16.67;;;;;23.58;100.00;101176.16;5055472;28;45468;-72
2023/10/03 02:21:42;;;;;;;;;16.33;15.67;;;;;23.55;100.00;101185.25;5057303;28;45396;-73
2023/10/03 02:24:08;;;;;;;;;16.33;15.33;;;;;23.53;100.00;101190.66;5056557;28;45791;-74
2023/10/03 02:26:33;;;;;;;;;20.67;15.33;;;;;23.51;100.00;101202.47;5055527;28;45309;-72
2023/10/03 02:29:00;;;;;;;;;16.33;14.33;;;;;23.47;100.00;101203.50;5062858;28;60337;-73
2023/10/03 02:31:26;;;;;;;;;16.67;15.33;;;;;23.49;100.00;101205.22;5057553;27;45418;-73
2023/10/03 02:33:53;;;;;;;;;17.67;14.33;;;;;23.55;100.00;101211.31;5056188;28;45766;-75
2023/10/03 02:36:19;;;;;;;;;13.00;12.00;;;;;23.46;100.00;101201.75;5056662;28;45199;-75
2023/10/03 02:38:44;;;;;;;;;23.00;17.00;;;;;23.41;100.00;101196.53;5055221;28;45523;-74
2023/10/03 02:41:12;;;;;;;;;15.00;12.67;;;;;23.40;100.00;101183.13;5056876;28;45542;-74
2023/10/03 02:43:42;;;;;;;;;16.67;15.00;;;;;23.38;100.00;101187.66;5055080;28;45622;-73
2023/10/03 02:46:11;;;;;;;;;15.33;14.00;;;;;23.37;100.00;101184.09;5071568;28;45345;-72
2023/10/03 02:48:36;;;;;;;;;20.00;17.67;;;;;23.37;100.00;101189.47;5055248;28;45487;-73
2023/10/03 02:51:02;;;;;;;;;18.67;16.33;;;;;23.32;100.00;101198.66;5056564;28;45249;-73
2023/10/03 02:53:27;;;;;;;;;20.00;14.67;;;;;23.27;100.00;101205.09;5055893;28;45510;-73
2023/10/03 02:55:54;;;;;;;;;18.33;14.00;;;;;23.22;100.00;101199.03;5055383;28;65728;-74
2023/10/03 02:58:20;;;;;;;;;20.00;17.00;;;;;23.21;100.00;101212.53;5056674;28;45411;-72
2023/10/03 03:00:46;;;;;;;;;17.00;15.67;;;;;23.18;100.00;101194.66;5068763;28;45802;-74
2023/10/03 03:03:14;;;;;;;;;17.67;16.00;;;;;23.13;100.00;101191.25;5054688;28;45969;-73
2023/10/03 03:05:41;;;;;;;;;15.67;14.67;;;;;23.12;100.00;101205.66;5055995;28;45416;-74
2023/10/03 03:08:22;;;;;;;;;20.33;15.33;;;;;23.09;100.00;101208.44;5055041;28;45432;-71
2023/10/03 03:10:55;;;;;;;;;13.33;12.00;;;;;23.05;100.00;101214.00;5055464;28;45409;-73
2023/10/03 03:13:22;;;;;;;;;16.00;15.33;;;;;23.05;100.00;101206.78;5051657;28;48445;-74
2023/10/03 03:16:11;;;;;;;;;19.33;17.00;;;;;23.07;100.00;101215.72;5055681;28;45309;-72
2023/10/03 03:18:41;;;;;;;;;12.67;12.67;;;;;23.03;100.00;101221.25;5049309;28;45257;-73
2023/10/03 03:21:13;;;;;;;;;18.33;16.67;;;;;23.04;100.00;101206.84;5054846;28;45380;-73
2023/10/03 03:23:43;;;;;;;;;18.67;17.00;;;;;23.01;100.00;101202.47;5054456;28;46662;-73
2023/10/03 03:28:41;;;;;;;;;17.67;16.67;;;;;22.97;100.00;101206.19;5059737;28;45921;-73
2023/10/03 03:31:22;;;;;;;;;18.33;16.67;;;;;22.99;100.00;101209.69;5057146;28;45501;-73
2023/10/03 03:33:58;;;;;;;;;14.67;14.67;;;;;22.96;100.00;101220.59;5054706;28;46725;-72
2023/10/03 03:36:29;;;;;;;;;14.00;13.00;;;;;22.93;100.00;101220.69;5054930;28;45269;-73
2023/10/03 03:38:55;;;;;;;;;16.67;15.00;;;;;22.91;100.00;101222.56;5048419;28;45350;-72
2023/10/03 03:41:20;;;;;;;;;17.00;15.00;;;;;22.89;100.00;101221.72;5054687;28;45243;-72
2023/10/03 03:43:48;;;;;;;;;16.00;15.33;;;;;22.84;100.00;101227.22;5055180;28;46758;-73
2023/10/03 03:46:13;;;;;;;;;13.33;13.33;;;;;22.81;100.00;101234.53;5055360;28;45359;-72
2023/10/03 03:48:39;;;;;;;;;17.00;13.33;;;;;22.82;100.00;101242.56;5055324;28;56741;-73
2023/10/03 03:51:12;;;;;;;;;13.67;11.67;;;;;22.77;100.00;101244.53;5050859;28;45512;-73
2023/10/03 03:53:38;;;;;;;;;15.00;11.33;;;;;22.76;100.00;101242.75;5052370;28;46271;-73
2023/10/03 03:56:07;;;;;;;;;13.33;11.00;;;;;22.70;100.00;101229.50;5055198;28;45432;-74
2023/10/03 03:58:37;;;;;;;;;10.00;7.00;;;;;22.69;100.00;101241.19;5056622;28;45373;-74
2023/10/03 04:01:12;;;;;;;;;10.33;10.33;;;;;22.67;100.00;101248.44;5057530;28;45662;-72
2023/10/03 04:03:38;;;;;;;;;16.33;13.33;;;;;22.65;100.00;101245.81;5057968;28;45489;-73
2023/10/03 04:06:05;;;;;;;;;12.67;12.00;;;;;22.62;100.00;101253.97;5058072;28;45408;-73
2023/10/03 04:08:30;;;;;;;;;11.67;11.67;;;;;22.59;100.00;101264.84;5057139;28;45352;-73
2023/10/03 04:10:55;;;;;;;;;10.00;10.00;;;;;22.58;100.00;101262.19;5058409;28;63840;-72
2023/10/03 04:13:21;;;;;;;;;10.00;9.67;;;;;22.57;100.00;101247.84;5057802;28;46394;-73
2023/10/03 04:15:47;;;;;;;;;15.33;10.67;;;;;22.56;100.00;101258.69;5058365;28;45867;-74
2023/10/03 04:18:15;;;;;;;;;10.33;7.67;;;;;22.55;100.00;101256.91;5063768;28;45409;-74
2023/10/03 04:20:41;;;;;;;;;10.00;9.00;;;;;22.54;100.00;101261.44;5057636;28;45649;-73
2023/10/03 04:23:07;;;;;;;;;11.67;9.67;;;;;22.52;100.00;101265.94;5057515;28;46146;-74
2023/10/03 04:25:33;;;;;;;;;10.67;9.00;;;;;22.54;100.00;101282.97;5059328;28;45460;-73
2023/10/03 04:27:59;;;;;;;;;9.00;7.33;;;;;22.51;100.00;101290.22;5058752;28;45486;-74
2023/10/03 04:30:26;;;;;;;;;10.00;8.00;;;;;22.48;100.00;101288.53;5065826;28;45459;-73
2023/10/03 04:32:53;;;;;;;;;9.33;8.00;;;;;22.49;100.00;101282.22;5058110;28;46577;-72
2023/10/03 04:35:19;;;;;;;;;10.00;9.00;;;;;22.49;100.00;101280.41;5058565;28;45385;-72
2023/10/03 04:37:46;;;;;;;;;7.33;6.00;;;;;22.51;100.00;101283.03;5057530;28;45266;-72
2023/10/03 04:40:16;;;;;;;;;8.33;7.67;;;;;22.53;100.00;101278.50;5059190;28;45520;-72
2023/10/03 04:42:45;;;;;;;;;8.67;7.67;;;;;22.53;100.00;101288.38;5056659;28;47083;-73
2023/10/03 04:45:14;;;;;;;;;9.00;8.00;;;;;22.53;100.00;101294.66;5057921;28;45392;-73
2023/10/03 04:47:43;;;;;;;;;8.67;8.67;;;;;22.53;100.00;101291.97;5058530;28;45373;-73
2023/10/03 04:50:10;;;;;;;;;13.00;11.67;;;;;22.51;100.00;101293.81;5058361;28;45562;-74
2023/10/03 04:52:35;;;;;;;;;11.33;8.33;;;;;22.51;100.00;101309.06;5058032;28;46835;-73
2023/10/03 04:55:01;;;;;;;;;9.00;9.00;;;;;22.53;100.00;101300.03;5061883;28;45660;-73
2023/10/03 04:57:29;;;;;;;;;10.00;8.00;;;;;22.52;100.00;101305.44;5058082;27;45462;-74
2023/10/03 04:59:59;;;;;;;;;8.33;8.00;;;;;22.50;100.00;101294.75;5053439;28;45907;-74
2023/10/03 05:02:30;;;;;;;;;9.33;9.33;;;;;22.50;100.00;101286.66;5054981;28;45379;-72
2023/10/03 05:04:56;;;;;;;;;8.00;7.00;;;;;22.53;100.00;101283.91;5048669;28;45296;-72
2023/10/03 05:07:23;;;;;;;;;8.00;7.00;;;;;22.51;100.00;101296.50;5057339;28;45454;-72
2023/10/03 05:09:50;;;;;;;;;8.33;8.00;;;;;22.54;100.00;101296.41;5056157;28;45309;-72
2023/10/03 05:12:16;;;;;;;;;7.00;6.33;;;;;22.53;100.00;101304.50;5056594;28;45463;-71
2023/10/03 05:14:41;;;;;;;;;9.00;7.67;;;;;22.54;100.00;101292.84;5056987;28;67867;-71
2023/10/03 05:17:07;;;;;;;;;7.00;7.00;;;;;22.56;100.00;101290.97;5058609;28;45463;-71
2023/10/03 05:19:32;;;;;;;;;8.33;7.00;;;;;22.54;100.00;101309.00;5056616;28;45722;-73
2023/10/03 05:21:58;;;;;;;;;9.00;6.33;;;;;22.53;100.00;101305.41;5070977;28;48304;-71
2023/10/03 05:24:24;;;;;;;;;7.00;7.00;;;;;22.52;100.00;101311.72;5057412;28;45439;-76
2023/10/03 05:26:49;;;;;;;;;8.33;8.00;;;;;22.53;100.00;101318.88;5056604;28;45361;-73
2023/10/03 05:29:16;;;;;;;;;9.33;6.33;;;;;22.49;100.00;101314.50;5062929;28;45388;-73
2023/10/03 05:31:42;;;;;;;;;8.67;7.00;;;;;22.45;100.00;101311.03;5057304;28;46059;-74
2023/10/03 05:34:08;;;;;;;;;10.00;8.00;;;;;22.41;100.00;101328.19;5055165;28;45466;-73
2023/10/03 05:36:33;;;;;;;;;7.00;7.00;;;;;22.39;100.00;101337.25;5051986;28;45894;-73
2023/10/03 05:38:59;;;;;;;;;6.00;6.00;;;;;22.36;100.00;101353.47;5037523;28;56819;-74
2023/10/03 05:41:24;;;;;;;;;10.33;8.00;;;;;22.35;100.00;101360.66;5055728;28;68207;-74
2023/10/03 05:43:50;;;;;;;;;6.67;6.33;;;;;22.32;100.00;101344.63;5054905;28;63988;-75
2023/10/03 05:46:15;;;;;;;;;5.00;5.00;;;;;22.31;100.00;101353.59;5054049;28;45538;-72
2023/10/03 05:48:43;;;;;;;;;6.00;6.00;;;;;22.30;100.00;101348.28;5054956;28;45601;-73
2023/10/03 05:51:08;;;;;;;;;8.33;7.33;;;;;22.32;100.00;101365.25;5058022;28;46519;-72
2023/10/03 05:53:34;;;;;;;;;7.00;7.00;;;;;22.30;100.00;101357.22;5054182;28;45437;-74
2023/10/03 05:56:00;;;;;;;;;6.00;6.00;;;;;22.28;100.00;101345.63;5056657;28;45525;-74
2023/10/03 05:58:26;;;;;;;;;8.33;6.33;;;;;22.28;100.00;101353.72;5055989;28;45470;-73
2023/10/03 06:00:52;;;;;;;;;4.00;4.00;;;;;22.24;100.00;101370.84;5037685;28;47519;-72
2023/10/03 06:03:17;;;;;;;;;5.00;5.00;;;;;22.22;100.00;101376.28;5055461;28;50416;-74
2023/10/03 06:05:43;;;;;;;;;7.00;7.00;;;;;22.25;100.00;101374.44;5055945;28;46229;-72
2023/10/03 06:08:12;;;;;;;;;7.00;7.00;;;;;22.23;100.00;101361.91;5058327;28;45554;-72
2023/10/03 06:10:38;;;;;;;;;7.00;7.00;;;;;22.21;100.00;101352.09;5054331;28;45868;-73
2023/10/03 06:13:05;;;;;;;;;6.33;5.67;;;;;22.23;100.00;101344.88;5055784;28;45548;-73
2023/10/03 06:15:32;;;;;;;;;6.00;5.67;;;;;22.22;100.00;101349.38;5054001;28;45467;-73
2023/10/03 06:17:57;;;;;;;;;7.67;6.00;;;;;22.21;100.00;101341.34;5073156;27;45363;-74
2023/10/03 06:20:24;;;;;;;;;9.67;6.00;;;;;22.21;100.00;101358.38;5055551;28;69370;-75
2023/10/03 06:22:50;;;;;;;;;6.00;6.00;;;;;22.20;100.00;101356.59;5055077;28;45331;-74
2023/10/03 06:25:15;;;;;;;;;8.00;7.00;;;;;22.19;100.00;101353.97;5056641;28;45455;-73
2023/10/03 06:27:41;;;;;;;;;7.00;7.00;;;;;22.21;100.00;101347.63;5052082;28;45367;-74
2023/10/03 06:30:07;;;;;;;;;5.33;5.00;;;;;22.21;100.00;101362.84;5050444;28;46854;-72
2023/10/03 06:32:33;;;;;;;;;7.67;6.67;;;;;22.17;100.00;101364.78;5055684;28;45474;-72
2023/10/03 06:34:58;;;;;;;;;7.33;6.67;;;;;22.14;100.00;101374.72;5055486;28;45583;-71
2023/10/03 06:37:24;;;;;;;;;6.67;5.33;;;;;22.10;100.00;101365.84;5050918;28;45397;-73
2023/10/03 06:39:49;;;;;;;;;6.67;6.00;;;;;22.06;100.00;101368.66;5054987;28;46373;-72
2023/10/03 06:42:14;;;;;;;;;10.33;6.00;;;;;22.05;100.00;101356.13;5052614;28;49551;-72
2023/10/03 06:44:43;;;;;;;;;7.00;7.00;;;;;22.03;100.00;101364.25;5055826;28;56318;-71
2023/10/03 06:47:08;;;;;;;;;6.00;6.00;;;;;22.09;100.00;101380.19;5053870;28;45520;-72
2023/10/03 06:49:34;;;;;;;;;7.33;5.33;;;;;22.09;100.00;101385.59;5056295;28;46557;-74
2023/10/03 06:52:01;;;;;;;;;5.33;5.33;;;;;22.06;100.00;101385.69;5056263;28;45431;-72
2023/10/03 06:54:27;;;;;;;;;5.33;5.33;;;;;22.05;100.00;101388.38;5051584;28;45612;-72
2023/10/03 06:56:52;;;;;;;;;7.00;5.33;;;;;22.02;100.00;101393.88;5056981;28;45585;-73
2023/10/03 06:59:17;;;;;;;;;7.00;7.00;;;;;22.01;100.00;101411.81;5049852;28;69161;-72
2023/10/03 07:01:43;;;;;;;;;6.00;5.00;;;;;22.03;100.00;101430.59;5053895;28;45356;-72
2023/10/03 07:04:08;;;;;;;;;5.33;5.33;;;;;22.03;100.00;101430.59;5054931;28;45507;-74
2023/10/03 07:06:34;;;;;;;;;6.00;5.00;;;;;22.02;100.00;101442.28;5062964;28;45322;-72
2023/10/03 07:09:01;;;;;;;;;7.00;5.67;;;;;21.94;100.00;101445.16;5055801;28;45689;-74
2023/10/03 07:11:27;;;;;;;;;5.00;5.00;;;;;21.88;100.00;101456.06;5054646;28;45431;-72
2023/10/03 07:13:52;;;;;;;;;5.00;5.00;;;;;21.86;100.00;101448.06;5053061;28;45759;-75
2023/10/03 07:16:18;;;;;;;;;7.67;7.00;;;;;21.85;100.00;101469.63;5055768;28;45480;-75
2023/10/03 07:18:44;;;;;;;;;6.33;6.33;;;;;21.77;100.00;101480.53;5057162;27;46130;-72
2023/10/03 07:21:10;;;;;;;;;9.00;6.00;;;;;21.77;100.00;101490.41;5051253;28;45553;-71
2023/10/03 07:23:36;;;;;;;;;6.67;6.67;;;;;21.70;100.00;101501.31;5052705;28;45471;-73
2023/10/03 07:26:01;;;;;;;;;8.00;6.33;;;;;21.63;100.00;101490.78;5052027;28;45378;-73
2023/10/03 07:28:27;;;;;;;;;10.00;6.67;;;;;21.65;100.00;101483.53;5057624;28;45958;-72
2023/10/03 07:30:52;;;;;;;;;8.00;7.00;;;;;21.62;100.00;101489.88;5055591;27;45407;-71
2023/10/03 07:33:18;;;;;;;;;15.00;8.67;;;;;21.58;100.00;101506.13;5056574;28;45464;-72
2023/10/03 07:35:44;;;;;;;;;9.00;9.00;;;;;21.53;100.00;101510.72;5052096;28;45503;-72
2023/10/03 07:38:10;;;;;;;;;8.00;8.00;;;;;21.51;100.00;101501.78;5061236;28;45750;-72
2023/10/03 07:40:38;;;;;;;;;9.67;5.67;;;;;21.51;100.00;101491.94;5051207;28;45325;-72
2023/10/03 07:43:06;;;;;;;;;11.00;7.67;;;;;21.53;100.00;101486.53;5058424;28;45383;-72
2023/10/03 07:45:31;;;;;;;;;7.00;7.00;;;;;21.55;100.00;101485.56;5050127;28;46370;-72
2023/10/03 07:47:58;;;;;;;;;8.67;7.00;;;;;21.59;100.00;101499.81;5057623;28;45347;-72
2023/10/03 07:50:25;;;;;;;;;7.33;5.00;;;;;21.54;100.00;101486.50;5053802;28;45465;-75
2023/10/03 07:52:51;;;;;;;;;6.33;6.33;;;;;21.54;100.00;101496.38;5057255;28;45558;-72
2023/10/03 07:55:17;;;;;;;;;6.33;6.33;;;;;21.48;100.00;101523.38;5054784;28;45303;-73
2023/10/03 07:57:42;;;;;;;;;6.00;6.00;;;;;21.47;100.00;101514.44;5058659;28;45889;-72
2023/10/03 08:00:11;;;;;;;;;7.67;7.67;;;;;21.47;100.00;101529.69;5057432;28;64558;-71
2023/10/03 08:02:43;;;;;;;;;7.67;7.67;;;;;21.45;100.00;101541.31;5056783;28;45498;-72
2023/10/03 08:05:11;;;;;;;;;6.67;6.33;;;;;21.41;100.00;101550.41;5056177;28;45440;-72
2023/10/03 08:07:38;;;;;;;;;4.67;2.67;;;;;21.35;100.00;101561.25;5057256;28;45896;-72
2023/10/03 08:10:04;;;;;;;;;6.00;6.00;;;;;21.31;100.00;101594.50;5048586;28;45521;-72
2023/10/03 08:12:32;;;;;;;;;7.67;7.00;;;;;21.25;100.00;101620.53;5050328;28;45567;-73
2023/10/03 08:14:57;;;;;;;;;3.33;3.33;;;;;21.07;100.00;101611.06;5057799;28;45467;-72
2023/10/03 08:17:30;;;;;;;;;6.67;6.67;;;;;20.86;100.00;101598.94;5060138;28;62112;-71
2023/10/03 08:19:56;;;;;;;;;6.67;5.67;;;;;20.78;100.00;101608.97;5053144;28;45583;-71
2023/10/03 08:22:21;;;;;;;;;5.00;5.00;;;;;20.69;100.00;101610.00;5058176;28;45687;-72
2023/10/03 08:24:47;;;;;;;;;2.33;2.33;;;;;20.65;100.00;101616.34;5051385;28;46775;-72
2023/10/03 08:27:21;;;;;;;;;4.00;4.00;;;;;20.69;100.00;101611.81;5057685;28;45387;-73
2023/10/03 08:29:57;;;;;;;;;3.33;3.33;;;;;20.68;100.00;101637.78;5055825;28;45572;-73
2023/10/03 08:32:25;;;;;;;;;6.00;4.00;;;;;20.64;100.00;101652.16;5048838;28;45364;-72
2023/10/03 08:34:52;;;;;;;;;4.33;4.33;;;;;20.63;100.00;101640.53;5053924;28;45622;-71
2023/10/03 08:37:24;;;;;;;;;6.33;5.00;;;;;20.65;100.00;101656.59;5056428;28;46097;-73
2023/10/03 08:39:51;;;;;;;;;6.33;4.33;;;;;20.69;100.00;101657.44;5053854;28;45906;-71
2023/10/03 08:42:20;;;;;;;;;7.00;6.00;;;;;20.76;100.00;101662.66;5057484;28;45281;-72
2023/10/03 08:44:53;;;;;;;;;7.67;5.67;;;;;20.79;100.00;101670.66;5052829;28;45502;-71
2023/10/03 08:47:28;;;;;;;;;3.67;3.67;;;;;20.78;100.00;101686.81;5055890;28;48243;-72
2023/10/03 08:49:57;;;;;;;;;8.00;6.00;;;;;20.73;100.00;101686.00;5056532;28;45413;-72
2023/10/03 08:52:39;;;;;;;;;6.33;4.67;;;;;20.71;100.00;101694.06;5057937;28;45433;-72
2023/10/03 08:55:07;;;;;;;;;6.00;6.00;;;;;20.69;100.00;101690.53;5070727;27;45404;-71
2023/10/03 08:57:32;;;;;;;;;5.00;5.00;;;;;20.73;100.00;101691.38;5057622;28;46086;-73
2023/10/03 08:59:59;;;;;;;;;4.33;4.33;;;;;20.74;100.00;101709.25;5055005;28;45414;-72
2023/10/03 09:02:26;;;;;;;;;4.00;3.67;;;;;20.75;100.00;101719.94;5057785;28;45232;-72
2023/10/03 09:04:52;;;;;;;;;4.67;4.33;;;;;20.77;100.00;101711.84;5051468;28;45629;-73
2023/10/03 09:07:19;;;;;;;;;6.00;4.00;;;;;20.76;100.00;101719.03;5053911;28;46502;-72
2023/10/03 09:09:45;;;;;;;;;2.33;2.33;;;;;20.81;100.00;101719.84;5051601;28;45515;-73
2023/10/03 09:12:12;;;;;;;;;2.33;1.33;;;;;20.85;100.00;101709.94;5049438;28;45501;-72
2023/10/03 09:14:38;;;;;;;;;3.00;0.00;;;;;20.90;100.00;101710.75;5072828;28;45270;-72
2023/10/03 09:17:04;;;;;;;;;3.67;3.00;;;;;20.94;100.00;101709.78;5056821;28;45409;-72
2023/10/03 09:19:47;;;;;;;;;6.00;2.33;;;;;21.07;100.00;101715.81;5055627;28;45491;-71
2023/10/03 09:22:30;;;;;;;;;6.00;4.00;;;;;21.25;100.00;101739.63;5055894;28;45346;-72
2023/10/03 09:24:55;;;;;;;;;1.33;1.33;;;;;21.38;100.00;101719.72;5054486;28;45485;-73
2023/10/03 09:27:27;;;;;;;;;2.00;0.33;;;;;21.42;100.00;101715.19;5055379;28;45900;-72
2023/10/03 09:29:52;;;;;;;;;1.67;1.33;;;;;21.43;100.00;101717.81;5052882;28;45507;-72
2023/10/03 09:32:23;;;;;;;;;3.33;1.67;;;;;21.40;100.00;101719.69;5055698;28;45454;-74
2023/10/03 09:34:59;;;;;;;;;3.33;1.33;;;;;21.33;100.00;101735.03;5056226;28;45422;-74
2023/10/03 09:37:28;;;;;;;;;1.00;1.00;;;;;21.24;100.00;101732.47;5048800;28;46621;-71
2023/10/03 09:39:58;;;;;;;;;1.33;1.33;;;;;21.18;100.00;101738.84;5056155;28;45485;-74
2023/10/03 09:42:24;;;;;;;;;1.33;1.33;;;;;21.17;100.00;101750.53;5056336;28;45628;-72
2023/10/03 09:44:51;;;;;;;;;1.67;0.33;;;;;21.21;100.00;101755.84;5055472;28;45588;-73
2023/10/03 09:47:27;;;;;;;;;3.00;0.00;;;;;21.19;100.00;101766.59;5055715;28;45760;-72
2023/10/03 09:50:03;;;;;;;;;0.67;0.67;;;;;21.16;100.00;101761.31;5049122;28;45512;-74
2023/10/03 09:52:30;;;;;;;;;1.33;1.33;;;;;21.16;100.00;101772.94;5051211;28;45625;-73
2023/10/03 09:55:00;;;;;;;;;2.33;1.33;;;;;21.26;100.00;101784.41;5071076;27;45630;-72
2023/10/03 09:57:29;;;;;;;;;1.67;1.67;;;;;21.37;100.00;101779.75;5046776;28;46002;-72
2023/10/03 09:59:55;;;;;;;;;2.33;0.67;;;;;21.47;100.00;101785.84;5056125;28;45320;-72
2023/10/03 10:02:30;;;;;;;;;2.67;1.67;;;;;21.56;100.00;101790.13;5052375;28;45317;-72
2023/10/03 10:04:59;;;;;;;;;1.67;1.00;;;;;21.65;100.00;101784.59;5059288;27;45521;-72
2023/10/03 10:07:43;;;;;;;;;4.67;1.00;;;;;21.69;100.00;101772.88;5052376;28;46916;-72
2023/10/03 10:10:14;;;;;;;;;4.00;3.00;;;;;21.79;100.00;101787.91;5054697;28;45710;-71
2023/10/03 10:13:12;;;;;;;;;2.00;2.00;;;;;21.90;100.00;101796.63;5054375;28;45550;-72
2023/10/03 10:16:28;;;;;;;;;4.33;0.00;;;;;22.04;100.00;101795.44;5045262;28;45450;-74
2023/10/03 10:18:49;;;;;;;;;4.33;2.00;;;;;22.17;100.00;101787.13;5052363;28;47457;-72
2023/10/03 10:21:20;;;;;;;;;1.00;1.00;;;;;22.28;100.00;101794.06;5060147;28;45434;-72
2023/10/03 10:24:20;;;;;;;;;5.00;2.00;;;;;22.39;100.00;101798.28;5052088;28;45589;-72
2023/10/03 10:26:49;;;;;;;;;1.00;1.00;;;;;22.44;100.00;101799.06;5057348;27;45494;-72
2023/10/03 10:29:19;;;;;;;;;4.00;1.00;;;;;22.59;100.00;101808.59;5057992;28;46446;-72
2023/10/03 10:31:57;;;;;;;;;2.67;1.33;;;;;22.70;100.00;101801.16;5056116;28;45501;-71
2023/10/03 10:35:01;;;;;;;;;0.33;0.00;;;;;22.74;100.00;101807.31;5067931;28;45423;-71
2023/10/03 10:37:18;;;;;;;;;4.00;2.00;;;;;22.68;100.00;101816.44;5049722;28;46118;-72
2023/10/03 10:43:08;;;;;;;;;3.00;2.33;;;;;22.46;100.00;101831.31;5055256;28;46203;-70
2023/10/03 10:45:41;;;;;;;;;2.00;2.00;;;;;22.39;100.00;101838.66;5055109;28;45458;-70
2023/10/03 10:48:08;;;;;;;;;3.00;1.33;;;;;22.43;100.00;101842.16;5055264;28;45352;-76
2023/10/03 10:51:02;;;;;;;;;4.33;2.67;;;;;22.53;100.00;101843.75;5054784;28;46794;-73
2023/10/03 10:53:43;;;;;;;;;4.33;2.67;;;;;22.64;100.00;101840.81;5055304;28;45629;-73
2023/10/03 10:56:12;;;;;;;;;1.67;1.00;;;;;22.70;100.00;101843.34;5053752;28;45279;-72
2023/10/03 10:58:50;;;;;;;;;3.00;3.00;;;;;22.71;100.00;101842.41;5037039;28;45463;-71
2023/10/03 11:01:18;;;;;;;;;2.00;2.00;;;;;22.69;100.00;101839.78;5054375;28;46621;-71
2023/10/03 11:03:43;;;;;;;;;4.00;3.00;;;;;22.74;100.00;101853.09;5054213;28;45526;-71
2023/10/03 11:06:19;;;;;;;;;5.00;2.00;;;;;22.69;100.00;101850.53;5193523;22;45636;-72
2023/10/03 11:08:44;;;;;;;;;2.67;2.67;;;;;22.69;100.00;101852.31;5058887;28;45421;-73
2023/10/03 11:11:10;;;;;;;;;3.67;2.00;;;;;22.80;100.00;101858.38;5057236;27;46070;-74
2023/10/03 11:13:47;;;;;;;;;4.00;2.67;;;;;22.93;100.00;101854.47;5053462;28;62598;-71
2023/10/03 11:16:21;;;;;;;;;1.67;1.67;;;;;23.06;100.00;101860.44;5049869;28;45866;-71
2023/10/03 11:18:47;;;;;;;;;4.00;2.00;;;;;23.12;100.00;101856.75;5054041;28;45419;-72
2023/10/03 11:21:12;;;;;;;;;2.33;1.00;;;;;23.10;100.00;101856.75;5053237;28;45558;-74
2023/10/03 11:23:38;;;;;;;;;2.00;2.00;;;;;23.07;100.00;101858.66;5052904;28;45587;-73
2023/10/03 11:26:06;;;;;;;;;3.00;3.00;;;;;22.97;100.00;101864.28;5053007;28;45569;-73